Time;durP1;ratioP1;P1;durP2;ratioP2;P2;SDS_P1;SDS_P2;PMS_P1;PMS_P2;Temp;Humidity;BMP_temperature;BMP_pressure;BME280_temperature;BME280_humidity;BME280_pressure;Samples;Min_cycle;Max_cycle;Signal;HPM_P1;HPM_P2
2022/02/11 00:08:05;;;;;;;68.75;51.55;;;26.30;99.90;;;;;;4194036;28;20127;-67
2022/02/11 00:10:13;;;;;;;68.90;52.97;;;26.30;99.90;;;;;;4194835;28;20075;-67
2022/02/11 00:12:18;;;;;;;65.57;50.55;;;26.30;99.90;;;;;;4194992;28;20133;-66
2022/02/11 00:14:24;;;;;;;69.85;53.00;;;26.30;99.90;;;;;;4188541;28;20045;-66
2022/02/11 00:16:32;;;;;;;64.68;51.42;;;26.30;99.90;;;;;;4187955;28;20079;-67
2022/02/11 00:18:41;;;;;;;65.30;50.88;;;26.30;99.90;;;;;;4192573;28;20095;-68
2022/02/11 00:20:49;;;;;;;62.47;50.17;;;26.30;99.90;;;;;;4195644;28;20458;-66
2022/02/11 00:23:06;;;;;;;61.88;48.45;;;26.30;99.90;;;;;;4195844;28;20071;-66
2022/02/11 00:25:15;;;;;;;70.85;50.45;;;26.30;99.90;;;;;;4191136;28;20095;-67
2022/02/11 00:33:50;;;;;;;89.15;51.10;;;26.30;99.90;;;;;;4196476;28;21229;-66
2022/02/11 00:36:00;;;;;;;72.85;49.45;;;26.30;99.90;;;;;;4194960;28;20056;-66
2022/02/11 00:38:12;;;;;;;70.70;48.30;;;26.40;99.90;;;;;;4195180;28;20115;-67
2022/02/11 00:45:30;;;;;;;81.25;62.28;;;26.40;99.90;;;;;;4193743;28;20041;-67
2022/02/11 01:03:05;;;;;;;102.22;52.03;;;26.60;99.90;;;;;;4195482;28;20124;-67
2022/02/11 01:05:10;;;;;;;88.25;53.63;;;26.60;99.90;;;;;;4195112;28;20033;-67
2022/02/11 01:07:15;;;;;;;71.00;49.60;;;26.60;99.90;;;;;;4196079;28;20045;-67
2022/02/11 01:09:20;;;;;;;64.50;46.35;;;26.60;99.90;;;;;;4191331;28;20143;-67
2022/02/11 01:11:35;;;;;;;61.83;42.50;;;26.60;99.90;;;;;;4194041;28;20051;-68
2022/02/11 01:13:39;;;;;;;61.17;43.25;;;26.60;99.90;;;;;;4193347;28;20078;-67
2022/02/11 01:15:51;;;;;;;57.55;41.35;;;26.70;99.90;;;;;;4194786;28;20068;-67
2022/02/11 01:18:00;;;;;;;57.67;41.35;;;26.70;99.90;;;;;;4192534;28;20098;-67
2022/02/11 01:20:15;;;;;;;61.83;41.50;;;26.70;99.90;;;;;;4194925;28;20048;-67
2022/02/11 01:53:42;;;;;;;37.70;29.40;;;27.10;97.50;;;;;;4193721;28;20738;-69
2022/02/11 02:00:47;;;;;;;37.30;28.35;;;27.20;96.90;;;;;;4193084;28;20441;-67
2022/02/11 02:36:41;;;;;;;31.60;24.20;;;27.60;94.60;;;;;;4197839;28;20090;-66
2022/02/11 02:57:18;;;;;;;32.15;24.20;;;27.90;94.20;;;;;;4194212;28;20056;-67
2022/02/11 03:01:48;;;;;;;29.55;22.63;;;28.00;93.90;;;;;;4196574;28;20052;-69
2022/02/11 03:31:34;;;;;;;26.92;20.27;;;28.30;92.40;;;;;;4193135;28;20044;-70
2022/02/11 03:55:10;;;;;;;27.90;22.38;;;28.40;92.00;;;;;;4196472;28;20078;-68
2022/02/11 04:08:10;;;;;;;28.85;22.55;;;28.70;92.30;;;;;;4197198;28;20668;-68
2022/02/11 04:55:27;;;;;;;24.55;16.92;;;29.90;88.40;;;;;;4195377;28;20086;-68
2022/02/11 04:59:50;;;;;;;24.02;17.75;;;30.00;88.70;;;;;;4193302;28;20563;-67
2022/02/11 05:01:55;;;;;;;21.40;17.20;;;30.00;88.20;;;;;;4195557;28;20155;-68
2022/02/11 05:03:59;;;;;;;23.42;17.40;;;30.00;88.60;;;;;;4195732;28;20037;-67
2022/02/11 05:06:03;;;;;;;26.98;17.33;;;30.10;88.20;;;;;;4195093;28;20048;-68
2022/02/11 05:08:08;;;;;;;24.38;18.00;;;30.10;88.00;;;;;;4193224;28;20036;-67
2022/02/11 05:10:16;;;;;;;24.70;18.60;;;30.20;87.60;;;;;;4193797;28;20050;-69
2022/02/11 05:12:20;;;;;;;22.27;17.33;;;30.20;87.70;;;;;;4196079;28;20048;-67
2022/02/11 05:14:25;;;;;;;27.95;18.90;;;30.30;87.60;;;;;;4195868;28;20041;-67
2022/02/11 05:16:30;;;;;;;20.77;16.73;;;30.30;87.60;;;;;;4195623;28;20052;-68
2022/02/11 05:18:34;;;;;;;23.50;18.02;;;30.30;87.90;;;;;;4193983;28;20076;-68
2022/02/11 05:20:43;;;;;;;20.88;17.20;;;30.30;87.90;;;;;;4195301;28;20498;-70
2022/02/11 05:22:50;;;;;;;22.63;17.13;;;30.40;88.20;;;;;;4195526;28;20522;-68
2022/02/11 05:24:54;;;;;;;22.90;17.63;;;30.40;88.10;;;;;;4194254;28;20581;-67
2022/02/11 05:26:59;;;;;;;20.48;16.10;;;30.50;86.90;;;;;;4194460;28;20128;-67
2022/02/11 05:29:03;;;;;;;21.33;16.73;;;30.60;86.90;;;;;;4189913;28;20048;-67
2022/02/11 05:31:08;;;;;;;21.88;16.67;;;30.60;87.20;;;;;;4194109;28;20044;-67
2022/02/11 05:33:13;;;;;;;20.83;16.50;;;30.60;86.50;;;;;;4194761;28;20041;-67
2022/02/11 05:35:19;;;;;;;24.00;16.80;;;30.70;86.70;;;;;;4193849;28;20041;-67
2022/02/11 05:37:24;;;;;;;18.23;15.10;;;30.70;86.00;;;;;;4196127;28;20056;-67
2022/02/11 05:39:28;;;;;;;19.35;16.30;;;30.80;84.00;;;;;;4195935;28;20542;-66
2022/02/11 05:41:33;;;;;;;22.75;16.27;;;30.80;84.30;;;;;;4195386;28;20090;-66
2022/02/11 05:43:40;;;;;;;20.27;15.85;;;30.80;85.00;;;;;;4194058;28;20045;-65
2022/02/11 05:45:45;;;;;;;19.50;16.10;;;30.80;85.50;;;;;;4194751;28;20036;-67
2022/02/11 05:47:49;;;;;;;20.65;15.63;;;30.80;85.70;;;;;;4195040;28;20127;-67
2022/02/11 05:49:53;;;;;;;21.27;15.13;;;30.90;86.00;;;;;;4194962;28;20629;-67
2022/02/11 05:52:18;;;;;;;18.92;15.73;;;30.90;86.90;;;;;;4194135;28;20040;-67
2022/02/11 05:54:22;;;;;;;20.35;15.52;;;31.00;85.10;;;;;;4194716;28;20563;-67
2022/02/11 05:56:27;;;;;;;18.02;14.95;;;31.00;84.90;;;;;;4192729;28;20131;-67
2022/02/11 05:58:31;;;;;;;20.00;15.68;;;31.00;85.10;;;;;;4193573;28;20163;-67
2022/02/11 06:00:36;;;;;;;18.02;15.55;;;31.00;84.40;;;;;;4194257;28;20109;-68
2022/02/11 06:02:40;;;;;;;19.33;15.75;;;31.00;83.40;;;;;;4195535;28;20029;-67
2022/02/11 06:04:44;;;;;;;21.73;15.98;;;31.00;83.90;;;;;;4192169;28;20119;-67
2022/02/11 06:06:49;;;;;;;18.13;15.18;;;31.00;84.20;;;;;;4194059;28;20079;-67
2022/02/11 06:08:55;;;;;;;19.92;15.50;;;31.10;84.60;;;;;;4193885;28;20044;-68
2022/02/11 06:11:00;;;;;;;22.60;15.57;;;31.20;84.50;;;;;;4195284;28;20048;-67
2022/02/11 06:13:05;;;;;;;19.02;14.93;;;31.20;84.90;;;;;;4193835;28;20132;-67
2022/02/11 06:15:10;;;;;;;21.65;15.20;;;31.30;85.70;;;;;;4193758;28;20041;-67
2022/02/11 06:17:14;;;;;;;18.40;14.35;;;31.30;84.20;;;;;;4194120;28;20449;-67
2022/02/11 06:19:18;;;;;;;20.58;14.35;;;31.30;84.10;;;;;;4193352;28;20060;-66
2022/02/11 06:21:23;;;;;;;20.33;14.95;;;31.30;84.60;;;;;;4193817;28;20040;-68
2022/02/11 06:23:31;;;;;;;21.27;14.63;;;31.30;84.80;;;;;;4194711;28;20078;-67
2022/02/11 06:25:35;;;;;;;17.85;15.00;;;31.40;85.20;;;;;;4195025;28;20040;-70
2022/02/11 06:27:39;;;;;;;19.25;14.70;;;31.40;84.60;;;;;;4194800;28;20049;-69
2022/02/11 06:29:44;;;;;;;20.58;14.90;;;31.40;84.80;;;;;;4194828;28;20049;-68
2022/02/11 06:31:48;;;;;;;17.13;14.95;;;31.50;84.40;;;;;;4194715;28;20098;-68
2022/02/11 06:33:52;;;;;;;16.70;13.73;;;31.50;84.30;;;;;;4194123;28;20051;-69
2022/02/11 06:35:59;;;;;;;16.35;14.43;;;31.50;84.60;;;;;;4209633;28;20607;-69
2022/02/11 06:38:04;;;;;;;15.55;13.48;;;31.50;83.50;;;;;;4192400;28;20048;-69
2022/02/11 06:40:10;;;;;;;17.02;14.05;;;31.50;83.60;;;;;;4192983;28;20463;-69
2022/02/11 06:42:14;;;;;;;18.63;14.45;;;31.60;83.80;;;;;;4194534;28;20052;-69
2022/02/11 06:44:19;;;;;;;16.15;14.45;;;31.60;83.90;;;;;;4193917;28;20048;-68
2022/02/11 06:46:23;;;;;;;18.25;14.13;;;31.60;83.60;;;;;;4193691;28;20047;-69
2022/02/11 06:48:28;;;;;;;16.77;14.05;;;31.70;83.00;;;;;;4194334;28;20075;-68
2022/02/11 06:50:32;;;;;;;17.58;14.60;;;31.70;83.10;;;;;;4194343;28;20043;-69
2022/02/11 06:52:37;;;;;;;18.40;14.13;;;31.70;83.20;;;;;;4193880;28;20045;-68
2022/02/11 06:54:41;;;;;;;17.33;14.15;;;31.80;82.90;;;;;;4191436;28;20064;-69
2022/02/11 06:56:48;;;;;;;15.68;13.98;;;31.80;82.90;;;;;;4193998;28;20045;-68
2022/02/11 06:58:55;;;;;;;18.13;14.30;;;31.80;82.90;;;;;;4195253;28;20638;-69
2022/02/11 07:01:00;;;;;;;17.02;13.20;;;31.80;82.70;;;;;;4194701;28;20572;-68
2022/02/11 07:03:04;;;;;;;17.58;13.82;;;31.90;82.60;;;;;;4194820;28;20071;-69
2022/02/11 07:05:09;;;;;;;19.85;14.43;;;31.90;81.80;;;;;;4194716;28;20036;-69
2022/02/11 07:07:14;;;;;;;17.88;13.00;;;31.90;82.10;;;;;;4193455;28;20394;-70
2022/02/11 07:09:18;;;;;;;19.27;13.23;;;32.00;80.30;;;;;;4193460;28;20098;-68
2022/02/11 07:11:23;;;;;;;16.40;12.55;;;31.90;80.10;;;;;;4195281;28;20036;-69
2022/02/11 07:13:27;;;;;;;13.77;12.35;;;32.00;80.50;;;;;;4196552;28;20072;-69
2022/02/11 07:15:35;;;;;;;14.63;12.05;;;32.00;80.40;;;;;;4196112;28;20098;-69
2022/02/11 07:17:39;;;;;;;18.90;12.85;;;32.10;80.10;;;;;;4196508;28;20078;-70
2022/02/11 07:19:44;;;;;;;14.10;12.65;;;32.00;80.60;;;;;;4196228;28;20064;-69
2022/02/11 07:21:50;;;;;;;14.05;11.55;;;32.10;80.40;;;;;;4194980;28;20048;-69
2022/02/11 07:23:54;;;;;;;16.92;12.60;;;32.10;79.80;;;;;;4196696;28;20043;-68
2022/02/11 07:25:58;;;;;;;16.40;12.52;;;32.10;80.00;;;;;;4196339;28;20113;-68
2022/02/11 07:28:03;;;;;;;17.58;12.65;;;32.20;79.50;;;;;;4193072;28;20106;-68
2022/02/11 07:30:08;;;;;;;17.02;11.95;;;32.20;79.10;;;;;;4196591;28;20500;-67
2022/02/11 07:32:12;;;;;;;15.55;12.00;;;32.20;78.90;;;;;;4197076;28;20050;-68
2022/02/11 07:34:17;;;;;;;14.45;11.68;;;32.30;78.80;;;;;;4195807;28;20159;-69
2022/02/11 07:36:21;;;;;;;15.00;12.45;;;32.20;78.80;;;;;;4194946;28;20063;-69
2022/02/11 07:38:26;;;;;;;13.55;11.32;;;32.30;78.60;;;;;;4195500;28;20052;-69
2022/02/11 07:40:31;;;;;;;14.18;11.52;;;32.30;78.20;;;;;;4196310;28;20559;-68
2022/02/11 07:42:37;;;;;;;13.38;11.23;;;32.30;78.10;;;;;;4194242;28;20377;-68
2022/02/11 07:44:41;;;;;;;15.88;11.95;;;32.30;78.00;;;;;;4196317;28;20045;-68
2022/02/11 07:46:45;;;;;;;16.30;12.63;;;32.30;77.20;;;;;;4194298;28;20356;-68
2022/02/11 07:48:50;;;;;;;14.35;11.10;;;32.30;76.90;;;;;;4196231;28;20048;-68
2022/02/11 07:50:55;;;;;;;14.60;11.25;;;32.40;77.50;;;;;;4195541;28;20043;-68
2022/02/11 07:52:59;;;;;;;12.63;11.05;;;32.40;77.20;;;;;;4195973;28;20059;-68
2022/02/11 07:55:04;;;;;;;12.63;11.32;;;32.40;76.80;;;;;;4195620;28;20051;-69
2022/02/11 07:57:09;;;;;;;15.90;11.70;;;32.40;77.00;;;;;;4194973;28;20075;-68
2022/02/11 07:59:18;;;;;;;16.92;12.15;;;32.50;77.00;;;;;;4195373;28;20052;-69
2022/02/11 08:01:23;;;;;;;15.57;11.20;;;32.50;77.20;;;;;;4193613;28;20063;-68
2022/02/11 08:03:29;;;;;;;13.15;11.65;;;32.50;77.70;;;;;;4195601;28;20052;-68
2022/02/11 08:05:33;;;;;;;13.55;11.18;;;32.50;77.40;;;;;;4196749;28;20496;-67
2022/02/11 08:07:38;;;;;;;14.82;11.68;;;32.50;77.40;;;;;;4196235;28;20040;-67
2022/02/11 08:09:42;;;;;;;16.67;11.93;;;32.50;77.10;;;;;;4195863;28;20049;-67
2022/02/11 08:11:46;;;;;;;14.98;11.80;;;32.50;77.00;;;;;;4194662;28;20083;-68
2022/02/11 08:13:50;;;;;;;14.57;11.70;;;32.60;75.90;;;;;;4196077;28;20040;-69
2022/02/11 08:15:55;;;;;;;13.45;11.23;;;32.60;76.60;;;;;;4195908;28;20045;-70
2022/02/11 08:17:59;;;;;;;15.80;12.13;;;32.50;76.60;;;;;;4193592;28;20037;-70
2022/02/11 08:20:04;;;;;;;12.85;11.32;;;32.50;76.70;;;;;;4194461;28;20048;-68
2022/02/11 08:22:09;;;;;;;17.65;11.60;;;32.50;76.60;;;;;;4194709;28;20033;-68
2022/02/11 08:24:14;;;;;;;13.13;11.73;;;32.50;76.60;;;;;;4194656;28;20051;-69
2022/02/11 08:26:19;;;;;;;17.35;11.27;;;32.60;76.20;;;;;;4193398;28;20036;-71
2022/02/11 08:28:24;;;;;;;13.27;10.88;;;32.60;76.20;;;;;;4195241;28;20049;-67
2022/02/11 08:30:29;;;;;;;15.38;11.65;;;32.60;76.30;;;;;;4194851;28;20062;-67
2022/02/11 08:32:34;;;;;;;16.75;12.02;;;32.60;76.20;;;;;;4194444;28;20055;-69
2022/02/11 08:34:39;;;;;;;12.82;11.23;;;32.50;75.70;;;;;;4193171;28;20070;-68
2022/02/11 08:36:45;;;;;;;14.20;11.70;;;32.50;76.10;;;;;;4194863;28;20040;-67
2022/02/11 08:38:49;;;;;;;19.77;11.60;;;32.50;75.70;;;;;;4195213;28;20045;-67
2022/02/11 08:41:00;;;;;;;15.63;11.48;;;32.50;75.80;;;;;;4194648;28;20051;-67
2022/02/11 08:43:04;;;;;;;14.75;11.90;;;32.50;76.10;;;;;;4194826;28;20084;-68
2022/02/11 08:45:09;;;;;;;15.27;11.90;;;32.50;76.70;;;;;;4195308;28;20511;-69
2022/02/11 08:47:14;;;;;;;14.57;11.15;;;32.50;76.80;;;;;;4195326;28;20061;-69
2022/02/11 08:49:19;;;;;;;14.65;11.20;;;32.50;76.50;;;;;;4194040;28;20491;-69
2022/02/11 08:51:23;;;;;;;15.85;11.55;;;32.50;76.50;;;;;;4194466;28;20036;-68
2022/02/11 08:53:30;;;;;;;13.70;11.02;;;32.50;76.30;;;;;;4193863;28;20453;-69
2022/02/11 08:55:37;;;;;;;13.18;11.43;;;32.50;76.30;;;;;;4192494;28;20049;-69
2022/02/11 08:57:47;;;;;;;13.20;11.13;;;32.50;76.50;;;;;;4195979;28;20052;-68
2022/02/11 08:59:51;;;;;;;13.98;11.23;;;32.50;76.50;;;;;;4193922;28;20044;-69
2022/02/11 09:01:56;;;;;;;12.75;10.65;;;32.50;76.10;;;;;;4194534;28;20068;-69
2022/02/11 09:04:00;;;;;;;14.20;10.88;;;32.50;76.00;;;;;;4194944;28;20786;-69
2022/02/11 09:06:06;;;;;;;14.07;10.45;;;32.50;75.00;;;;;;4195723;28;20052;-68
2022/02/11 09:08:10;;;;;;;12.43;10.70;;;32.50;75.80;;;;;;4195255;28;20143;-69
2022/02/11 09:10:15;;;;;;;13.63;11.15;;;32.50;75.80;;;;;;4195362;28;20743;-69
2022/02/11 09:12:19;;;;;;;14.63;10.55;;;32.50;75.70;;;;;;4192962;28;20036;-69
2022/02/11 09:14:24;;;;;;;12.88;10.98;;;32.50;75.80;;;;;;4195340;28;20398;-69
2022/02/11 09:16:30;;;;;;;12.98;10.27;;;32.40;75.70;;;;;;4195214;28;20060;-69
2022/02/11 09:18:36;;;;;;;15.57;10.60;;;32.40;75.60;;;;;;4194732;28;20091;-69
2022/02/11 09:20:41;;;;;;;16.52;11.60;;;32.30;75.70;;;;;;4195421;28;20033;-69
2022/02/11 09:22:45;;;;;;;15.88;11.93;;;32.30;75.90;;;;;;4192779;28;20075;-69
2022/02/11 09:24:51;;;;;;;18.48;11.82;;;32.30;75.80;;;;;;4194360;28;20048;-69
2022/02/11 09:26:56;;;;;;;18.27;12.23;;;32.30;76.10;;;;;;4194245;28;20045;-67
2022/02/11 09:29:05;;;;;;;19.35;12.70;;;32.20;76.10;;;;;;4195051;28;20391;-68
2022/02/11 09:31:11;;;;;;;19.80;12.52;;;32.20;76.40;;;;;;4193269;28;20048;-69
2022/02/11 09:33:16;;;;;;;15.82;11.95;;;32.20;76.60;;;;;;4194989;28;20045;-67
2022/02/11 09:35:21;;;;;;;17.48;12.60;;;32.20;77.00;;;;;;4195807;28;20741;-68
2022/02/11 09:37:27;;;;;;;14.48;11.98;;;32.10;77.20;;;;;;4196140;28;20070;-67
2022/02/11 09:39:31;;;;;;;15.15;11.57;;;32.10;77.30;;;;;;4195350;28;20052;-68
2022/02/11 09:41:36;;;;;;;15.48;12.07;;;32.10;77.30;;;;;;4194354;28;20051;-67
2022/02/11 09:43:41;;;;;;;15.13;11.98;;;32.10;77.80;;;;;;4195081;28;20068;-68
2022/02/11 09:45:46;;;;;;;14.38;11.65;;;32.10;78.00;;;;;;4207133;28;20445;-68
2022/02/11 09:47:50;;;;;;;13.10;11.68;;;32.10;78.40;;;;;;4194290;28;20024;-68
2022/02/11 09:49:53;;;;;;;13.40;11.52;;;32.10;78.60;;;;;;4193084;28;20085;-67
2022/02/11 09:51:57;;;;;;;16.10;12.07;;;32.10;78.60;;;;;;4194508;28;20031;-68
2022/02/11 09:54:02;;;;;;;17.17;12.65;;;32.10;79.00;;;;;;4194597;28;20036;-68
2022/02/11 09:56:07;;;;;;;14.57;12.98;;;32.10;79.30;;;;;;4192747;28;20090;-69
2022/02/11 09:58:32;;;;;;;15.90;12.60;;;32.10;79.60;;;;;;4193724;28;20551;-68
2022/02/11 10:00:38;;;;;;;14.15;12.43;;;32.00;79.80;;;;;;4192156;28;20052;-68
2022/02/11 10:02:50;;;;;;;15.32;12.30;;;32.00;80.70;;;;;;4193745;28;20084;-70
2022/02/11 10:04:56;;;;;;;17.33;13.15;;;32.00;80.90;;;;;;4193927;28;20040;-69
2022/02/11 10:07:01;;;;;;;17.85;12.73;;;32.00;81.10;;;;;;4193518;28;20552;-69
2022/02/11 10:09:05;;;;;;;15.52;12.07;;;31.90;81.30;;;;;;4192150;28;20075;-69
2022/02/11 10:11:12;;;;;;;16.13;12.55;;;32.00;81.60;;;;;;4193473;28;20072;-69
2022/02/11 10:13:18;;;;;;;16.63;13.15;;;31.90;81.80;;;;;;4208034;28;20102;-70
2022/02/11 10:15:23;;;;;;;16.23;12.93;;;31.90;82.00;;;;;;4195270;28;20159;-69
2022/02/11 10:17:27;;;;;;;14.52;12.40;;;31.90;82.50;;;;;;4193889;28;20053;-67
2022/02/11 10:19:56;;;;;;;16.10;12.90;;;31.80;83.00;;;;;;4194074;28;20079;-67
2022/02/11 10:22:26;;;;;;;18.42;13.40;;;31.80;83.00;;;;;;4193087;28;20056;-67
2022/02/11 10:24:31;;;;;;;17.60;12.93;;;31.80;83.30;;;;;;4193648;28;20048;-67
2022/02/11 10:26:36;;;;;;;16.77;12.98;;;31.80;83.40;;;;;;4193736;28;20093;-66
2022/02/11 10:28:48;;;;;;;17.88;13.50;;;31.80;83.60;;;;;;4193111;28;20039;-68
2022/02/11 10:31:10;;;;;;;19.23;13.90;;;31.80;83.80;;;;;;4193755;28;20036;-67
2022/02/11 10:33:15;;;;;;;18.55;12.98;;;31.70;84.00;;;;;;4193499;28;20076;-66
2022/02/11 10:35:25;;;;;;;17.40;13.82;;;31.70;84.30;;;;;;4192245;28;20052;-67
2022/02/11 10:37:34;;;;;;;22.63;14.40;;;31.60;84.50;;;;;;4192378;28;20049;-67
2022/02/11 10:39:38;;;;;;;18.88;14.48;;;31.60;85.10;;;;;;4194378;28;20040;-67
2022/02/11 10:41:49;;;;;;;20.10;14.82;;;31.50;85.40;;;;;;4187478;28;20473;-68
2022/02/11 10:44:06;;;;;;;19.90;14.98;;;31.50;86.30;;;;;;4192099;28;20059;-67
2022/02/11 10:46:16;;;;;;;19.13;14.70;;;31.40;86.50;;;;;;4196326;28;20064;-67
2022/02/11 10:48:23;;;;;;;23.40;16.40;;;31.40;86.70;;;;;;4194075;28;20032;-67
2022/02/11 10:50:28;;;;;;;21.85;16.35;;;31.40;86.90;;;;;;4194764;28;20040;-67
2022/02/11 10:52:34;;;;;;;23.27;16.40;;;31.40;87.00;;;;;;4188084;28;20040;-67
2022/02/11 10:54:39;;;;;;;22.35;16.75;;;31.30;87.20;;;;;;4195315;28;20037;-66
2022/02/11 10:56:43;;;;;;;26.13;17.38;;;31.30;87.30;;;;;;4185118;28;20052;-67
2022/02/11 10:58:58;;;;;;;24.48;16.90;;;31.30;87.40;;;;;;4192993;28;20613;-67
2022/02/11 11:01:04;;;;;;;25.42;17.23;;;31.30;87.70;;;;;;4187097;28;20092;-67
2022/02/11 11:03:10;;;;;;;26.20;18.17;;;31.20;87.90;;;;;;4181357;28;20100;-66
2022/02/11 11:05:15;;;;;;;26.70;18.90;;;31.20;87.90;;;;;;4184629;28;20053;-67
2022/02/11 11:07:28;;;;;;;32.40;18.58;;;31.10;88.10;;;;;;4186917;28;20039;-67
2022/02/11 11:09:53;;;;;;;34.78;19.92;;;31.10;88.20;;;;;;4182786;28;20048;-67
2022/02/11 11:11:59;;;;;;;35.38;21.15;;;31.10;88.80;;;;;;4185248;28;20036;-67
2022/02/11 11:14:04;;;;;;;30.50;21.75;;;31.00;88.10;;;;;;4196589;28;20049;-68
2022/02/11 11:16:10;;;;;;;35.53;23.48;;;31.00;88.40;;;;;;4194974;28;20048;-67
2022/02/11 11:18:17;;;;;;;41.30;27.17;;;31.00;88.80;;;;;;4197629;28;20057;-67
2022/02/11 11:20:33;;;;;;;41.63;29.30;;;31.00;89.20;;;;;;4194219;28;20044;-65
2022/02/11 11:22:43;;;;;;;43.33;29.92;;;30.90;89.50;;;;;;4195802;28;20105;-65
2022/02/11 11:24:57;;;;;;;42.92;30.80;;;30.90;89.40;;;;;;4195986;28;20040;-66
2022/02/11 11:27:02;;;;;;;43.63;31.85;;;30.90;89.50;;;;;;4197236;28;20048;-66
2022/02/11 11:29:10;;;;;;;43.85;30.00;;;30.90;89.50;;;;;;4196807;28;20036;-66
2022/02/11 11:31:34;;;;;;;46.28;30.20;;;30.90;89.40;;;;;;4196010;28;20468;-66
2022/02/11 11:33:42;;;;;;;44.78;29.42;;;30.80;89.30;;;;;;4193854;28;21066;-66
2022/02/11 11:36:04;;;;;;;43.63;28.85;;;30.80;89.10;;;;;;4195300;28;20045;-66
2022/02/11 11:38:16;;;;;;;39.97;28.50;;;30.70;89.00;;;;;;4196496;28;20049;-66
2022/02/11 11:40:24;;;;;;;41.25;29.77;;;30.70;89.90;;;;;;4196408;28;20044;-66
2022/02/11 11:42:28;;;;;;;42.53;30.63;;;30.70;89.50;;;;;;4195198;28;20398;-66
2022/02/11 11:44:49;;;;;;;44.45;30.40;;;30.70;90.00;;;;;;4191767;28;20044;-67
2022/02/11 11:47:02;;;;;;;49.40;31.20;;;30.70;90.10;;;;;;4196424;28;20102;-66
2022/02/11 11:49:11;;;;;;;48.38;30.67;;;30.70;90.20;;;;;;4196293;28;20119;-66
2022/02/11 11:51:15;;;;;;;46.80;30.27;;;30.70;90.30;;;;;;4195610;28;20048;-66
2022/02/11 11:53:27;;;;;;;44.17;29.20;;;30.70;90.40;;;;;;4195562;28;20593;-66
2022/02/11 11:55:39;;;;;;;44.45;29.58;;;30.60;90.40;;;;;;4195754;28;20036;-66
2022/02/11 11:57:43;;;;;;;44.70;28.25;;;30.60;90.50;;;;;;4211613;28;20080;-65
2022/02/11 11:59:55;;;;;;;47.53;30.35;;;30.60;90.60;;;;;;4195420;28;20044;-66
2022/02/11 12:02:33;;;;;;;49.60;29.15;;;30.60;90.60;;;;;;4196233;28;20052;-66
2022/02/11 12:04:57;;;;;;;42.13;30.63;;;30.50;90.60;;;;;;4195826;28;20494;-66
2022/02/11 12:07:04;;;;;;;44.38;32.63;;;30.50;90.70;;;;;;4195787;28;20048;-66
2022/02/11 12:09:10;;;;;;;42.70;32.13;;;30.50;90.70;;;;;;4195260;28;20425;-66
2022/02/11 12:11:15;;;;;;;51.13;33.10;;;30.50;90.70;;;;;;4196096;28;20483;-66
2022/02/11 12:13:19;;;;;;;53.03;31.60;;;30.50;90.70;;;;;;4195968;28;20055;-66
2022/02/11 12:15:26;;;;;;;44.13;30.20;;;30.50;90.80;;;;;;4196428;28;20043;-66
2022/02/11 12:17:34;;;;;;;38.80;28.65;;;30.50;91.00;;;;;;4211127;28;20063;-66
2022/02/11 12:19:40;;;;;;;45.35;31.85;;;30.50;91.10;;;;;;4196284;28;20067;-66
2022/02/11 12:21:44;;;;;;;43.83;32.60;;;30.40;91.10;;;;;;4196407;28;20040;-66
2022/02/11 12:28:30;;;;;;;86.70;50.25;;;30.30;91.40;;;;;;4210049;28;20413;-66
2022/02/11 12:30:42;;;;;;;85.18;50.17;;;30.30;91.40;;;;;;4196473;28;20470;-66
2022/02/11 12:32:48;;;;;;;;;;;30.30;91.40;;;;;;4194375;28;20048;-65
2022/02/11 12:34:56;;;;;;;87.50;52.22;;;30.40;91.50;;;;;;4195567;28;19924;-65
2022/02/11 12:37:08;;;;;;;84.65;51.97;;;30.30;91.50;;;;;;4195231;28;20048;-65
2022/02/11 12:39:22;;;;;;;82.82;49.10;;;30.40;91.50;;;;;;4191348;28;20585;-65
2022/02/11 12:41:43;;;;;;;85.38;48.50;;;30.30;91.50;;;;;;4193404;28;20055;-65
2022/02/11 12:43:59;;;;;;;79.03;46.83;;;30.30;91.60;;;;;;4195343;28;20065;-65
2022/02/11 12:46:08;;;;;;;71.15;44.00;;;30.30;91.70;;;;;;4191997;28;20128;-65
2022/02/11 12:48:14;;;;;;;76.53;44.90;;;30.30;91.70;;;;;;4193447;28;20043;-65
2022/02/11 12:50:28;;;;;;;66.85;41.15;;;30.20;91.70;;;;;;4191997;28;21283;-65
2022/02/11 12:52:36;;;;;;;67.70;42.40;;;30.30;91.70;;;;;;4194971;28;20087;-65
2022/02/11 12:55:01;;;;;;;57.33;35.25;;;30.30;91.70;;;;;;4195056;28;20402;-65
2022/02/11 12:57:12;;;;;;;49.15;32.38;;;30.20;91.70;;;;;;4191722;28;20106;-65
2022/02/11 12:59:16;;;;;;;50.35;30.27;;;30.20;91.70;;;;;;4194668;28;20048;-65
2022/02/11 13:01:30;;;;;;;47.53;29.63;;;30.20;91.80;;;;;;4192588;28;20053;-65
2022/02/11 13:03:36;;;;;;;48.15;30.55;;;30.20;91.90;;;;;;4193143;28;20037;-65
2022/02/11 13:05:46;;;;;;;43.47;28.67;;;30.20;91.90;;;;;;4192946;28;20541;-65
2022/02/11 13:07:58;;;;;;;42.65;28.55;;;30.20;91.90;;;;;;4188074;28;20064;-65
2022/02/11 13:10:05;;;;;;;43.93;28.23;;;30.20;92.10;;;;;;4190093;28;20044;-65
2022/02/11 13:12:09;;;;;;;39.95;28.00;;;30.10;92.10;;;;;;4190135;28;20426;-65
2022/02/11 13:14:14;;;;;;;39.20;27.67;;;30.20;91.90;;;;;;4194793;28;20132;-65
2022/02/11 13:16:24;;;;;;;42.22;30.02;;;30.20;92.00;;;;;;4194481;28;20044;-65
2022/02/11 13:18:30;;;;;;;40.10;28.77;;;30.20;91.70;;;;;;4193208;28;20052;-65
2022/02/11 13:20:39;;;;;;;48.60;30.27;;;30.20;91.40;;;;;;4211465;28;20077;-65
2022/02/11 13:22:44;;;;;;;52.75;30.85;;;30.00;91.30;;;;;;4196129;28;20094;-65
2022/02/11 13:24:48;;;;;;;40.80;29.08;;;30.00;91.00;;;;;;4192925;28;20504;-65
2022/02/11 13:26:53;;;;;;;40.80;29.70;;;29.80;90.30;;;;;;4195637;28;20127;-65
2022/02/11 13:28:57;;;;;;;46.88;28.65;;;29.70;89.80;;;;;;4195912;28;20040;-65
2022/02/11 13:31:03;;;;;;;45.22;29.00;;;29.60;89.80;;;;;;4195848;28;20132;-65
2022/02/11 13:33:21;;;;;;;48.05;30.70;;;29.70;89.20;;;;;;4195606;28;20068;-65
2022/02/11 13:35:27;;;;;;;50.80;32.25;;;29.70;88.80;;;;;;4196032;28;20437;-65
2022/02/11 13:37:43;;;;;;;49.15;33.67;;;29.60;89.00;;;;;;4193155;28;20068;-65
2022/02/11 13:39:47;;;;;;;42.00;32.42;;;29.50;89.30;;;;;;4194700;28;20036;-65
2022/02/11 13:41:51;;;;;;;36.45;26.33;;;29.30;89.40;;;;;;4193332;28;20048;-65
2022/02/11 13:44:08;;;;;;;39.15;27.42;;;29.10;89.50;;;;;;4195611;28;20044;-65
2022/02/11 13:46:49;;;;;;;35.25;26.88;;;29.10;90.00;;;;;;4193563;28;20075;-65
2022/02/11 13:48:56;;;;;;;35.20;27.42;;;29.10;90.10;;;;;;4193784;28;20124;-65
2022/02/11 13:51:12;;;;;;;31.75;26.95;;;29.20;90.00;;;;;;4195642;28;20071;-65
2022/02/11 13:53:28;;;;;;;31.83;26.65;;;29.10;90.20;;;;;;4193722;28;20127;-65
2022/02/11 13:55:32;;;;;;;31.90;26.10;;;29.20;90.10;;;;;;4193109;28;20051;-65
2022/02/11 13:57:37;;;;;;;36.30;25.48;;;29.10;90.20;;;;;;4195713;28;20036;-65
2022/02/11 13:59:41;;;;;;;30.90;25.20;;;29.10;90.50;;;;;;4195294;28;20410;-65
2022/02/11 14:01:47;;;;;;;29.20;24.67;;;29.20;90.30;;;;;;4195231;28;20484;-65
2022/02/11 14:03:59;;;;;;;29.42;24.83;;;29.10;90.50;;;;;;4193112;28;20040;-65
2022/02/11 14:06:05;;;;;;;32.28;25.38;;;29.10;90.60;;;;;;4195760;28;20080;-65
2022/02/11 14:08:12;;;;;;;31.90;25.92;;;29.10;90.70;;;;;;4193093;28;20392;-65
2022/02/11 14:10:17;;;;;;;28.30;24.17;;;28.90;90.90;;;;;;4193980;28;20041;-65
2022/02/11 14:12:31;;;;;;;30.77;25.10;;;28.60;91.50;;;;;;4195562;28;20078;-65
2022/02/11 14:14:35;;;;;;;34.92;27.25;;;28.60;91.70;;;;;;4193710;28;20441;-65
2022/02/11 14:16:41;;;;;;;36.35;28.85;;;28.60;91.80;;;;;;4195382;28;20048;-64
2022/02/11 14:18:45;;;;;;;36.47;28.23;;;28.50;92.00;;;;;;4196606;28;20054;-65
2022/02/11 14:20:50;;;;;;;33.90;28.75;;;28.60;91.90;;;;;;4196262;28;20071;-65
2022/02/11 14:22:54;;;;;;;38.70;29.30;;;28.70;91.90;;;;;;4198778;28;20053;-65
2022/02/11 14:24:59;;;;;;;35.58;28.15;;;28.80;91.70;;;;;;4198228;28;20036;-65
2022/02/11 14:27:04;;;;;;;33.80;27.88;;;28.90;91.70;;;;;;4198670;28;20035;-65
2022/02/11 14:29:08;;;;;;;34.17;28.27;;;28.70;91.80;;;;;;4195313;28;20139;-65
2022/02/11 14:31:12;;;;;;;40.60;29.35;;;28.60;92.10;;;;;;4196278;28;20086;-64
2022/02/11 14:33:17;;;;;;;33.28;28.23;;;28.60;92.20;;;;;;4198517;28;20060;-65
2022/02/11 14:35:21;;;;;;;39.28;28.17;;;28.60;92.10;;;;;;4198372;28;20044;-65
2022/02/11 14:37:25;;;;;;;33.90;28.88;;;28.70;92.00;;;;;;4198582;28;20048;-64
2022/02/11 14:39:30;;;;;;;38.95;29.02;;;28.80;91.80;;;;;;4194989;28;20111;-65
2022/02/11 14:43:51;;;;;;;40.70;31.42;;;28.80;91.80;;;;;;4198318;28;20036;-65
2022/02/11 14:45:56;;;;;;;38.47;30.40;;;28.80;91.90;;;;;;4198132;28;20068;-65